Terminal Aerodrome Forecast
Issued by NWS

Home | Current Version | Previous Version | Text Only | Print | Product List | Glossary On
Versions: 1 2 3 4 5 6 7 8 9 10 11 12 13 14
000
FTAK31 PAJN 281122
TAFAPG
TAF
PAPG 281122Z 2812/0112 VRB04KT P6SM OVC080
     FM281500 VRB04KT 3SM -SN SCT012 OVC025
     FM281800 VRB04KT 3/4SM -SN OVC010
     FM282100 VRB04KT 2SM -SN OVC015
     FM010600 VRB04KT 4SM -SN BKN015 OVC025
      AMD LTD TO CLD VIS AND WIND 2812/2815=

USA.gov is the U.S. government's official web portal to all federal, state and local government web resources and services.